Latest Weather Observations for Flinders Reef

IDQ60801

Issued at 2:02 pm EST Wednesday 28 January 2015 (issued every 30 minutes, with the page automatically refreshed every 10 minutes)

About weather observations | Map of weather stations | Latest weather observations for QLD | Other Formats
Station Details ID: 200783 Name: FLINDERS REEF Lat: -17.72 Lon: 148.45 Height: 2.6 m
Data from the previous 72 hours. | See also: Recent months at Flinders Reef
Date/Time
EST
Temp
°C
App
Temp
°C
Dew
Point
Rel
Hum
%
Delta-T
°C
Wind Press
QNH
hPa
Press
MSL
hPa
Rain
since 9 am
mm
Dir
 
Spd
km/h
Gust
km/h
Spd
kts
Gust
kts
28/02:00pm - - - - - NW 13 15 7 8 1000.5 - -
28/01:30pm - - - - - NW 11 17 6 9 1000.6 - -
28/01:24pm - - - - - NW 11 - 6 - - 1000.5 -
28/01:00pm - - - - - NW 13 17 7 9 1000.9 - -
28/12:30pm - - - - - NW 15 17 8 9 1001.2 - -
28/12:24pm - - - - - NW 15 - 8 - - 1001.1 -
28/12:00pm - - - - - NW 15 17 8 9 1001.5 - -
28/11:30am - - - - - NW 15 17 8 9 1001.7 - -
28/11:24am - - - - - NW 15 - 8 - - 1001.6 -
28/11:00am - - - - - NW 19 20 10 11 1001.8 - -
28/10:30am - - - - - NW 20 24 11 13 1001.6 - -
28/10:24am - - - - - NW 22 - 12 - - 1001.5 -
28/10:00am - - - - - NW 22 26 12 14 1001.8 - -
28/09:30am - - - - - NNW 22 26 12 14 1001.8 - -
28/09:24am - - - - - NNW 24 - 13 - - 1001.6 -
28/09:00am - - - - - NW 22 24 12 13 1002.0 - -
28/08:30am - - - - - NNW 22 26 12 14 1002.0 - -
28/08:24am - - - - - NNW 19 - 10 - - 1002.0 -
28/08:00am - - - - - WNW 11 13 6 7 1002.2 - -
28/07:30am - - - - - W 9 13 5 7 1001.7 - -
28/07:24am - - - - - W 9 - 5 - - 1001.6 -
28/07:00am - - - - - WNW 17 19 9 10 1001.8 - -
28/06:30am - - - - - WNW 15 17 8 9 1001.8 - -
28/06:24am - - - - - WNW 17 - 9 - - 1001.6 -
28/06:00am - - - - - WNW 19 20 10 11 1001.5 - -
28/05:30am - - - - - WNW 19 20 10 11 1001.3 - -
28/05:24am - - - - - WNW 19 - 10 - - 1001.3 -
28/05:00am - - - - - WNW 17 20 9 11 1000.9 - -
28/04:30am - - - - - NW 24 28 13 15 1000.4 - -
28/04:24am - - - - - NW 20 - 11 - - 1000.3 -
28/04:00am - - - - - NNW 19 20 10 11 1000.3 - -
28/03:30am - - - - - NNW 20 24 11 13 1000.5 - -
28/03:24am - - - - - NNW 20 - 11 - - 1000.4 -
28/03:00am - - - - - N 22 24 12 13 1000.2 - -
28/02:30am - - - - - NNW 24 26 13 14 1000.3 - -
28/02:24am - - - - - NNW 24 - 13 - - 1000.3 -
28/02:00am - - - - - NNW 22 26 12 14 1000.6 - -
28/01:30am - - - - - N 20 24 11 13 1001.0 - -
28/01:24am - - - - - N 20 - 11 - - 1001.2 -
28/01:00am - - - - - NNW 20 22 11 12 1001.5 - -
28/12:30am - - - - - NNW 22 26 12 14 1001.9 - -
28/12:24am - - - - - NNW 24 - 13 - - 1001.9 -
28/12:00am - - - - - N 26 30 14 16 1002.7 - -
 
Date/Time
EST
Temp
°C
App
Temp
°C
Dew
Point
Rel
Hum
%
Delta-T
°C
Wind Press
QNH
hPa
Press
MSL
hPa
Rain
since 9 am
mm
Dir
 
Spd
km/h
Gust
km/h
Spd
kts
Gust
kts
27/11:30pm - - - - - N 24 26 13 14 1003.0 - -
27/11:24pm - - - - - N 24 - 13 - - 1002.9 -
27/11:00pm - - - - - NNW 24 26 13 14 1002.8 - -
27/10:30pm - - - - - NNW 22 24 12 13 1003.1 - -
27/10:24pm - - - - - NNW 20 - 11 - - 1003.1 -
27/10:00pm - - - - - NNW 17 19 9 10 1003.3 - -
27/09:30pm - - - - - N 17 17 9 9 1003.1 - -
27/09:24pm - - - - - N 17 - 9 - - 1003.2 -
27/09:00pm - - - - - N 20 24 11 13 1003.0 - -
27/08:30pm - - - - - N 17 20 9 11 1003.0 - -
27/08:24pm - - - - - N 17 - 9 - - 1002.9 -
27/08:00pm - - - - - N 19 20 10 11 1002.8 - -
27/07:30pm - - - - - N 19 20 10 11 1002.2 - -
27/07:24pm - - - - - N 19 - 10 - - 1002.0 -
27/07:00pm - - - - - N 20 22 11 12 1001.7 - -
27/06:30pm - - - - - NW 17 19 9 10 1001.3 - -
27/06:24pm - - - - - NW 17 - 9 - - 1001.2 -
27/06:00pm - - - - - WNW 11 13 6 7 1001.0 - -
27/05:30pm - - - - - WNW 9 11 5 6 1000.8 - -
27/05:24pm - - - - - W 9 - 5 - - 1000.6 -
27/05:00pm - - - - - W 9 11 5 6 1000.6 - -
27/04:30pm - - - - - W 6 9 3 5 1000.6 - -
27/04:24pm - - - - - W 7 - 4 - - 1000.4 -
27/04:00pm - - - - - W 7 9 4 5 1000.6 - -
27/03:30pm - - - - - W 7 9 4 5 1000.9 - -
27/03:24pm - - - - - W 7 - 4 - - 1000.9 -
27/03:00pm - - - - - W 7 9 4 5 1001.2 - -
27/02:30pm - - - - - W 9 11 5 6 1001.4 - -
27/02:24pm - - - - - W 11 - 6 - - 1001.5 -
27/02:00pm - - - - - W 11 13 6 7 1001.8 - -
27/01:30pm - - - - - W 7 9 4 5 1001.9 - -
27/01:24pm - - - - - W 9 - 5 - - 1001.8 -
27/01:00pm - - - - - W 9 11 5 6 1002.1 - -
27/12:30pm - - - - - W 11 13 6 7 1002.2 - -
27/12:24pm - - - - - W 11 - 6 - - 1002.1 -
27/12:00pm - - - - - WNW 11 13 6 7 1002.5 - -
27/11:30am - - - - - WNW 11 13 6 7 1002.7 - -
27/11:24am - - - - - WNW 9 - 5 - - 1002.6 -
27/11:00am - - - - - WNW 9 11 5 6 1002.9 - -
27/10:30am - - - - - W 13 15 7 8 1003.4 - -
27/10:24am - - - - - W 13 - 7 - - 1003.3 -
27/10:00am - - - - - W 17 20 9 11 1003.5 - -
27/09:30am - - - - - W 17 19 9 10 1003.5 - -
27/09:24am - - - - - W 17 - 9 - - 1003.4 -
27/09:00am - - - - - W 17 20 9 11 1003.5 - -
27/08:30am - - - - - W 13 15 7 8 1003.4 - -
27/08:24am - - - - - W 13 - 7 - - 1003.3 -
27/08:00am - - - - - W 17 20 9 11 1003.3 - -
27/07:30am - - - - - W 19 22 10 12 1003.0 - -
27/07:24am - - - - - W 20 - 11 - - 1002.9 -
27/07:00am - - - - - W 20 22 11 12 1002.9 - -
27/06:30am - - - - - WNW 19 22 10 12 1002.7 - -
27/06:24am - - - - - WNW 19 - 10 - - 1002.6 -
27/06:00am - - - - - WNW 22 26 12 14 1002.5 - -
27/05:30am - - - - - WNW 26 30 14 16 1002.4 - -
27/05:24am - - - - - WNW 26 - 14 - - 1002.3 -
27/05:00am - - - - - WNW 26 32 14 17 1002.5 - -
27/04:30am - - - - - NW 24 28 13 15 1002.6 - -
27/04:24am - - - - - NW 24 - 13 - - 1002.5 -
27/04:00am - - - - - NW 26 30 14 16 1002.7 - -
27/03:30am - - - - - NW 28 32 15 17 1002.9 - -
27/03:24am - - - - - NNW 26 - 14 - - 1002.9 -
27/03:00am - - - - - NNW 28 32 15 17 1003.2 - -
27/02:30am - - - - - NNW 24 28 13 15 1003.1 - -
27/02:24am - - - - - NNW 24 - 13 - - 1003.0 -
27/02:00am - - - - - NNW 26 30 14 16 1003.2 - -
27/01:30am - - - - - NW 22 26 12 14 1003.3 - -
27/01:24am - - - - - NW 22 - 12 - - 1003.2 -
27/01:00am - - - - - NW 24 28 13 15 1003.8 - -
27/12:30am - - - - - NNW 26 30 14 16 1004.5 - -
27/12:24am - - - - - NNW 24 - 13 - - 1004.5 -
27/12:00am - - - - - NNW 28 32 15 17 1005.0 - -
 
Date/Time
EST
Temp
°C
App
Temp
°C
Dew
Point
Rel
Hum
%
Delta-T
°C
Wind Press
QNH
hPa
Press
MSL
hPa
Rain
since 9 am
mm
Dir
 
Spd
km/h
Gust
km/h
Spd
kts
Gust
kts
26/11:30pm - - - - - NNW 26 28 14 15 1005.4 - -
26/11:24pm - - - - - NNW 24 - 13 - - 1005.4 -
26/11:00pm - - - - - NNW 24 28 13 15 1005.4 - -
26/10:30pm - - - - - NNW 22 26 12 14 1005.0 - -
26/10:24pm - - - - - NNW 22 - 12 - - 1004.9 -
26/10:00pm - - - - - N 20 22 11 12 1005.0 - -
26/09:30pm - - - - - N 15 17 8 9 1004.6 - -
26/09:24pm - - - - - N 15 - 8 - - 1004.4 -
26/09:00pm - - - - - N 15 19 8 10 1004.3 - -
26/08:30pm - - - - - N 13 15 7 8 1003.9 - -
26/08:24pm - - - - - N 13 - 7 - - 1003.9 -
26/08:00pm - - - - - N 13 15 7 8 1003.9 - -
26/07:30pm - - - - - N 13 15 7 8 1003.7 - -
26/07:24pm - - - - - N 13 - 7 - - 1003.6 -
26/07:00pm - - - - - N 9 11 5 6 1003.6 - -
26/06:30pm - - - - - WNW 13 15 7 8 1003.5 - -
26/06:24pm - - - - - WNW 13 - 7 - - 1003.4 -
26/06:00pm - - - - - WNW 13 15 7 8 1003.4 - -
26/05:30pm - - - - - W 15 19 8 10 1003.2 - -
26/05:24pm - - - - - W 17 - 9 - - 1003.1 -
26/05:00pm - - - - - W 17 19 9 10 1003.3 - -
26/04:30pm - - - - - W 20 24 11 13 1003.3 - -
26/04:24pm - - - - - W 20 - 11 - - 1003.1 -
26/04:00pm - - - - - W 20 22 11 12 1003.3 - -
26/03:30pm - - - - - WNW 22 26 12 14 1003.6 - -
26/03:24pm - - - - - WNW 20 - 11 - - 1003.5 -
26/03:00pm - - - - - W 24 30 13 16 1003.9 - -
26/02:30pm - - - - - W 20 24 11 13 1004.2 - -
26/02:24pm - - - - - W 22 - 12 - - 1004.3 -
26/02:00pm - - - - - W 24 26 13 14 1004.6 - -
26/01:30pm - - - - - W 26 28 14 15 1005.0 - -
26/01:24pm - - - - - W 26 - 14 - - 1005.0 -
26/01:00pm - - - - - W 26 30 14 16 1005.4 - -
26/12:30pm - - - - - W 24 30 13 16 1005.5 - -
26/12:24pm - - - - - W 26 - 14 - - 1005.5 -
26/12:00pm - - - - - WNW 22 26 12 14 1005.7 - -
26/11:30am - - - - - WNW 19 22 10 12 1005.8 - -
26/11:24am - - - - - WNW 20 - 11 - - 1005.8 -
26/11:00am - - - - - WNW 22 26 12 14 1005.8 - -
26/10:30am - - - - - W 20 22 11 12 1005.7 - -
26/10:24am - - - - - W 19 - 10 - - 1005.6 -
26/10:00am - - - - - W 17 20 9 11 1005.9 - -
26/09:30am - - - - - W 13 15 7 8 1005.7 - -
26/09:24am - - - - - W 13 - 7 - - 1005.7 -
26/09:00am - - - - - W 13 15 7 8 1005.9 - -
26/08:30am - - - - - W 13 15 7 8 1006.4 - -
26/08:24am - - - - - W 13 - 7 - - 1006.3 -
26/08:00am - - - - - W 15 19 8 10 1006.5 - -
26/07:30am - - - - - W 20 24 11 13 1006.6 - -
26/07:24am - - - - - W 22 - 12 - - 1006.4 -
26/07:00am - - - - - W 26 30 14 16 1006.7 - -
26/06:30am - - - - - W 28 35 15 19 1006.9 - -
26/06:24am - - - - - W 30 - 16 - - 1006.7 -
26/06:00am - - - - - W 22 26 12 14 1006.6 - -
26/05:30am - - - - - W 22 26 12 14 1006.4 - -
26/05:24am - - - - - W 24 - 13 - - 1006.2 -
26/05:00am - - - - - W 24 28 13 15 1006.1 - -
26/04:30am - - - - - WNW 20 24 11 13 1006.0 - -
26/04:24am - - - - - WNW 22 - 12 - - 1005.8 -
26/04:00am - - - - - WNW 30 33 16 18 1005.8 - -
26/03:30am - - - - - NW 30 33 16 18 1005.7 - -
26/03:24am - - - - - NW 32 - 17 - - 1005.7 -
26/03:00am - - - - - WNW 32 35 17 19 1005.9 - -
26/02:30am - - - - - WNW 32 37 17 20 1005.6 - -
26/02:24am - - - - - WNW 32 - 17 - - 1005.5 -
26/02:00am - - - - - WNW 35 43 19 23 1005.9 - -
26/01:30am - - - - - WNW 39 44 21 24 1006.5 - -
26/01:24am - - - - - WNW 41 - 22 - - 1006.5 -
26/01:15am - - - - - W 32 44 17 24 1006.7 - -
26/01:00am - - - - - W 22 26 12 14 1006.4 - -
26/12:30am - - - - - WNW 26 32 14 17 1007.2 - -
26/12:24am - - - - - WNW 26 - 14 - - 1007.2 -
26/12:00am - - - - - WNW 28 32 15 17 1007.8 - -
 
Date/Time
EST
Temp
°C
App
Temp
°C
Dew
Point
Rel
Hum
%
Delta-T
°C
Wind Press
QNH
hPa
Press
MSL
hPa
Rain
since 9 am
mm
Dir
 
Spd
km/h
Gust
km/h
Spd
kts
Gust
kts
25/11:30pm - - - - - NW 30 35 16 19 1008.5 - -
25/11:24pm - - - - - NNW 32 - 17 - - 1008.2 -
25/11:00pm - - - - - NNW 28 32 15 17 1008.0 - -
25/10:30pm - - - - - NNW 28 32 15 17 1008.2 - -
25/10:24pm - - - - - NNW 30 - 16 - - 1008.3 -
25/10:00pm - - - - - NNW 32 37 17 20 1008.1 - -
25/09:30pm - - - - - NNW 32 39 17 21 1008.4 - -
25/09:24pm - - - - - NNW 33 - 18 - - 1008.2 -
25/09:00pm - - - - - NNW 33 39 18 21 1008.0 - -
25/08:30pm - - - - - NNW 32 37 17 20 1007.4 - -
25/08:24pm - - - - - NNW 33 - 18 - - 1007.3 -
25/08:00pm - - - - - NNW 33 39 18 21 1007.1 - -
25/07:30pm - - - - - NNW 33 37 18 20 1007.0 - -
25/07:24pm - - - - - NNW 32 - 17 - - 1006.9 -
25/07:00pm - - - - - NW 32 35 17 19 1006.8 - -
25/06:30pm - - - - - NW 28 33 15 18 1006.6 - -
25/06:24pm - - - - - NW 30 - 16 - - 1006.5 -
25/06:00pm - - - - - NW 30 33 16 18 1006.1 - -
25/05:30pm - - - - - NW 28 33 15 18 1005.5 - -
25/05:24pm - - - - - NW 28 - 15 - - 1005.4 -
25/05:00pm - - - - - NW 30 33 16 18 1005.3 - -
25/04:30pm - - - - - NW 28 33 15 18 1005.2 - -
25/04:24pm - - - - - NW 30 - 16 - - 1005.0 -
25/04:00pm - - - - - NW 30 35 16 19 1005.3 - -
25/03:30pm - - - - - NW 30 32 16 17 1005.6 - -
25/03:24pm - - - - - NW 30 - 16 - - 1005.7 -
25/03:00pm - - - - - NW 33 39 18 21 1006.1 - -
25/02:30pm - - - - - NW 32 37 17 20 1006.5 - -
25/02:24pm - - - - - NW 33 - 18 - - 1006.5 -

Other Formats:

Comma delimited format used in spreadsheet applications
http://www.bom.gov.au/fwo/IDQ60801/IDQ60801.94290.axf

JavaScript Object Notation format (JSON) in row-major order
http://www.bom.gov.au/fwo/IDQ60801/IDQ60801.94290.json